Time;durP1;ratioP1;P1;durP2;ratioP2;P2;SDS_P1;SDS_P2;PMS_P1;PMS_P2;Temp;Humidity;BMP_temperature;BMP_pressure;BME280_temperature;BME280_humidity;BME280_pressure;Samples;Min_cycle;Max_cycle;Signal;HPM_P1;HPM_P2
2020/12/30 00:00:05;;;;;;;3.03;1.20;;;;;;;3.62;89.13;97516.13;1998948;81;20323;-81
2020/12/30 00:03:06;;;;;;;3.39;1.13;;;;;;;3.64;88.93;97516.09;2000152;79;20351;-82
2020/12/30 00:06:08;;;;;;;2.16;1.11;;;;;;;3.61;88.89;97511.00;1996385;81;21004;-82
2020/12/30 00:09:10;;;;;;;1.51;1.23;;;;;;;3.58;89.03;97519.56;1999358;81;20359;-83
2020/12/30 00:12:12;;;;;;;0.90;0.88;;;;;;;3.60;89.12;97517.84;2000165;81;20328;-83
2020/12/30 00:15:14;;;;;;;1.75;0.88;;;;;;;3.61;89.21;97518.72;1998832;81;20369;-81
2020/12/30 00:18:17;;;;;;;0.90;0.71;;;;;;;3.60;89.14;97522.13;1999860;81;20392;-81
2020/12/30 00:21:19;;;;;;;1.15;0.75;;;;;;;3.59;89.05;97526.41;2003603;81;20339;-82
2020/12/30 00:24:20;;;;;;;2.11;0.73;;;;;;;3.59;89.14;97525.53;2001430;81;20375;-80
2020/12/30 00:27:22;;;;;;;0.95;0.84;;;;;;;3.62;89.03;97526.38;2000048;81;20356;-81
2020/12/30 00:30:24;;;;;;;0.60;0.60;;;;;;;3.63;88.93;97528.09;1999951;79;27694;-79
2020/12/30 00:33:25;;;;;;;1.52;0.60;;;;;;;3.64;88.83;97528.94;2037427;71;20334;-75
2020/12/30 00:36:27;;;;;;;0.90;0.70;;;;;;;3.64;88.77;97528.94;1990865;81;20824;-75
2020/12/30 00:39:29;;;;;;;0.70;0.60;;;;;;;3.63;88.81;97528.09;1990442;81;20559;-75
2020/12/30 00:42:32;;;;;;;0.61;0.61;;;;;;;3.67;88.85;97534.03;1990619;81;20366;-75
2020/12/30 00:45:34;;;;;;;1.50;0.63;;;;;;;3.68;88.71;97534.91;1992536;78;23233;-75
2020/12/30 00:48:35;;;;;;;0.91;0.59;;;;;;;3.70;88.79;97536.59;1996525;81;20364;-75
2020/12/30 00:51:37;;;;;;;3.11;0.70;;;;;;;3.71;88.70;97545.13;1995737;81;20869;-75
2020/12/30 00:54:38;;;;;;;0.59;0.52;;;;;;;3.69;88.69;97537.44;1995923;81;21353;-75
2020/12/30 00:57:40;;;;;;;1.00;0.59;;;;;;;3.69;88.74;97547.72;1995512;81;20352;-75
2020/12/30 01:00:42;;;;;;;0.74;0.70;;;;;;;3.69;88.81;97546.88;1995080;81;21218;-75
2020/12/30 01:03:44;;;;;;;0.60;0.59;;;;;;;3.69;88.88;97552.00;1996402;81;21310;-75
2020/12/30 01:06:53;;;;;;;1.85;0.69;;;;;;;3.70;88.88;97557.13;1995918;81;20722;-75
2020/12/30 01:09:54;;;;;;;;;;;;;;;3.71;88.90;97556.25;1996072;81;21106;-75
2020/12/30 01:12:56;;;;;;;0.86;0.86;;;;;;;3.74;88.94;97557.94;1995630;81;20084;-75
2020/12/30 01:15:58;;;;;;;1.00;0.59;;;;;;;3.72;88.88;97575.06;1996631;78;32968;-75
2020/12/30 01:18:59;;;;;;;2.01;0.70;;;;;;;3.69;89.11;97567.41;1990609;81;20780;-75
2020/12/30 01:22:01;;;;;;;1.19;0.80;;;;;;;3.69;89.16;97567.41;1990495;81;20392;-75
2020/12/30 01:25:02;;;;;;;1.16;0.70;;;;;;;3.70;89.42;97576.81;1990536;81;20354;-75
2020/12/30 01:28:04;;;;;;;0.85;0.70;;;;;;;3.72;89.32;97578.50;1990296;81;20393;-75
2020/12/30 01:31:06;;;;;;;1.54;0.95;;;;;;;3.71;89.41;97579.34;1994975;77;22935;-75
2020/12/30 01:34:07;;;;;;;0.94;0.84;;;;;;;3.73;89.51;97592.16;1998472;81;20401;-75
2020/12/30 01:37:09;;;;;;;2.29;1.00;;;;;;;3.76;89.55;97587.00;2000503;81;20352;-74
2020/12/30 01:40:11;;;;;;;1.91;0.90;;;;;;;3.77;89.54;97587.03;2001042;81;20447;-75
2020/12/30 01:43:14;;;;;;;0.77;0.77;;;;;;;3.77;89.59;97591.28;2000638;81;20352;-75
2020/12/30 01:46:16;;;;;;;1.31;0.90;;;;;;;3.79;89.62;97594.72;2001029;78;33302;-75
2020/12/30 01:49:22;;;;;;;0.76;0.76;;;;;;;3.80;89.63;97599.84;2001463;81;20328;-75
2020/12/30 01:52:24;;;;;;;0.73;0.73;;;;;;;3.82;89.65;97604.97;2001186;81;20346;-75
2020/12/30 01:55:29;;;;;;;0.90;0.90;;;;;;;3.83;89.71;97604.94;2000921;81;20338;-74
2020/12/30 01:58:31;;;;;;;1.52;0.91;;;;;;;3.84;89.71;97610.94;2001144;81;20406;-75
2020/12/30 02:01:36;;;;;;;0.93;0.77;;;;;;;3.85;89.65;97603.22;2000312;78;22496;-76
2020/12/30 02:04:47;;;;;;;1.29;0.61;;;;;;;3.81;89.64;97608.41;2000623;81;20336;-75
2020/12/30 02:07:50;;;;;;;1.94;0.79;;;;;;;3.77;89.70;97612.69;2000390;81;20332;-75
2020/12/30 02:10:52;;;;;;;0.63;0.55;;;;;;;3.76;89.71;97612.69;2001033;81;20336;-75
2020/12/30 02:14:01;;;;;;;1.96;0.51;;;;;;;3.78;89.61;97619.53;2000768;81;20795;-75
2020/12/30 02:17:03;;;;;;;0.90;0.43;;;;;;;3.77;89.32;97616.94;2001962;78;30086;-75
2020/12/30 02:20:04;;;;;;;0.73;0.51;;;;;;;3.75;89.21;97616.97;2000923;81;20303;-75
2020/12/30 02:23:11;;;;;;;1.54;0.50;;;;;;;3.75;89.18;97616.13;2000453;81;20346;-75
2020/12/30 02:26:13;;;;;;;0.60;0.43;;;;;;;3.74;89.11;97612.69;2000404;81;20476;-75
2020/12/30 02:29:15;;;;;;;0.75;0.39;;;;;;;3.74;88.92;97617.81;2000376;81;20320;-75
2020/12/30 02:32:16;;;;;;;0.50;0.50;;;;;;;3.72;88.96;97613.56;2000595;77;20904;-75
2020/12/30 02:35:23;;;;;;;0.39;0.39;;;;;;;3.72;88.92;97618.69;2000485;81;20454;-75
2020/12/30 02:38:29;;;;;;;0.59;0.50;;;;;;;3.70;88.99;97618.72;2000198;81;20338;-74
2020/12/30 02:41:32;;;;;;;1.54;0.45;;;;;;;3.71;88.99;97622.13;2000685;81;20329;-74
2020/12/30 02:44:33;;;;;;;0.65;0.50;;;;;;;3.71;88.90;97622.97;2000892;81;20354;-75
2020/12/30 02:47:35;;;;;;;0.52;0.50;;;;;;;3.70;88.87;97626.41;2000300;78;20549;-74
2020/12/30 02:50:37;;;;;;;0.70;0.40;;;;;;;3.70;88.89;97631.53;2000557;81;20321;-74
2020/12/30 02:53:38;;;;;;;0.93;0.50;;;;;;;3.67;88.81;97631.56;2001013;81;20328;-75
2020/12/30 02:56:40;;;;;;;1.61;0.52;;;;;;;3.68;89.04;97633.28;2003990;80;20312;-75
2020/12/30 02:59:42;;;;;;;0.86;0.50;;;;;;;3.69;88.99;97629.84;2000573;81;20344;-75
2020/12/30 03:02:43;;;;;;;0.50;0.50;;;;;;;3.68;89.01;97625.56;2001145;77;21574;-74
2020/12/30 03:05:45;;;;;;;0.86;0.50;;;;;;;3.67;89.01;97635.84;2002024;81;20328;-74
2020/12/30 03:08:47;;;;;;;1.04;0.60;;;;;;;3.68;89.13;97637.56;2001735;81;20374;-74
2020/12/30 03:11:49;;;;;;;1.48;0.50;;;;;;;3.66;89.24;97642.69;2001770;81;20795;-74
2020/12/30 03:14:51;;;;;;;2.44;0.50;;;;;;;3.68;89.19;97646.09;2001938;81;20389;-75
2020/12/30 03:17:52;;;;;;;2.04;0.50;;;;;;;3.68;89.21;97640.97;2001021;78;22185;-75
2020/12/30 03:20:54;;;;;;;1.06;0.50;;;;;;;3.68;89.17;97646.09;2002422;81;20324;-74
2020/12/30 03:23:56;;;;;;;1.05;0.80;;;;;;;3.67;89.13;97652.09;2001635;81;20812;-75
2020/12/30 03:26:57;;;;;;;1.10;0.51;;;;;;;3.67;89.26;97654.66;2002595;81;20441;-74
2020/12/30 03:29:59;;;;;;;2.24;0.70;;;;;;;3.64;89.17;97652.13;2001982;81;20798;-74
2020/12/30 03:33:00;;;;;;;0.96;0.60;;;;;;;3.63;89.27;97655.56;1991085;78;21787;-74
2020/12/30 03:36:02;;;;;;;1.05;0.59;;;;;;;3.65;89.37;97656.38;1991615;81;20483;-74
2020/12/30 03:39:04;;;;;;;1.89;0.60;;;;;;;3.66;89.26;97668.38;1991681;81;20984;-75
2020/12/30 03:42:06;;;;;;;2.36;0.60;;;;;;;3.64;89.27;97670.94;1992500;81;20413;-74
2020/12/30 03:45:08;;;;;;;1.51;0.71;;;;;;;3.64;89.32;97664.94;1991323;81;20323;-74
2020/12/30 03:48:10;;;;;;;1.64;0.76;;;;;;;3.67;89.44;97680.34;2005001;78;26979;-74
2020/12/30 03:51:11;;;;;;;1.50;0.61;;;;;;;3.64;89.28;97680.34;2001672;81;20389;-75
2020/12/30 03:54:13;;;;;;;0.74;0.57;;;;;;;3.63;89.28;97683.78;2001839;81;20826;-76
2020/12/30 03:57:15;;;;;;;0.32;0.32;;;;;;;3.57;88.76;97688.91;2001452;81;20332;-75
2020/12/30 04:00:16;;;;;;;1.04;0.40;;;;;;;3.52;88.70;97691.50;2004222;78;20332;-76
2020/12/30 04:03:18;;;;;;;1.91;0.28;;;;;;;3.46;88.12;97690.69;2001154;81;20320;-75
2020/12/30 04:06:19;;;;;;;0.45;0.20;;;;;;;3.38;87.47;97693.25;2001417;81;20316;-75
2020/12/30 04:09:21;;;;;;;0.20;0.20;;;;;;;3.27;86.89;97698.44;2001644;81;20360;-76
2020/12/30 04:12:23;;;;;;;0.79;0.30;;;;;;;3.28;87.18;97689.03;2000391;81;20414;-76
2020/12/30 04:15:24;;;;;;;0.71;0.24;;;;;;;3.25;87.37;97687.34;1999200;81;22288;-76
2020/12/30 04:18:26;;;;;;;0.20;0.20;;;;;;;3.24;87.28;97685.63;2000242;81;20342;-76
2020/12/30 04:21:27;;;;;;;0.47;0.47;;;;;;;3.20;87.18;97688.19;2000583;81;20316;-76
2020/12/30 04:24:29;;;;;;;0.11;0.11;;;;;;;3.21;87.26;97689.91;2001336;81;20350;-76
2020/12/30 04:27:31;;;;;;;0.20;0.20;;;;;;;3.20;87.32;97690.75;1999287;80;20368;-75
2020/12/30 04:30:32;;;;;;;0.34;0.20;;;;;;;3.18;87.25;97695.88;1998864;78;23269;-75
2020/12/30 04:33:34;;;;;;;2.63;0.20;;;;;;;3.17;87.47;97701.03;1999404;81;20332;-76
2020/12/30 04:36:35;;;;;;;0.10;0.10;;;;;;;3.16;87.54;97697.59;1999138;81;20358;-76
2020/12/30 04:39:37;;;;;;;0.82;0.20;;;;;;;3.15;87.53;97700.19;1999342;81;20348;-76
2020/12/30 04:42:40;;;;;;;0.32;0.26;;;;;;;3.17;87.80;97698.47;1999188;81;20328;-75
2020/12/30 04:45:43;;;;;;;0.41;0.20;;;;;;;3.16;87.90;97701.88;1997487;78;46798;-75
2020/12/30 04:48:45;;;;;;;1.10;0.29;;;;;;;3.15;87.98;97708.72;1998860;81;20320;-75
2020/12/30 04:51:47;;;;;;;0.40;0.20;;;;;;;3.13;87.98;97712.16;1999262;81;20340;-75
2020/12/30 04:54:50;;;;;;;0.54;0.20;;;;;;;3.08;88.13;97709.59;2000479;81;20324;-75
2020/12/30 04:58:09;;;;;;;1.20;0.20;;;;;;;3.07;88.39;97717.31;1999810;81;20382;-75
2020/12/30 05:01:17;;;;;;;0.19;0.19;;;;;;;3.09;88.55;97718.16;1999275;81;22661;-75
2020/12/30 05:04:20;;;;;;;1.23;0.18;;;;;;;3.10;88.58;97713.03;1999299;81;20203;-75
2020/12/30 05:07:26;;;;;;;0.25;0.24;;;;;;;3.11;88.52;97719.00;1999770;81;20205;-75
2020/12/30 05:10:28;;;;;;;2.25;0.82;;;;;;;3.11;88.40;97719.84;2000445;81;21649;-76
2020/12/30 05:13:29;;;;;;;0.20;0.20;;;;;;;3.08;88.38;97725.00;1999882;81;20813;-75
2020/12/30 05:16:31;;;;;;;0.49;0.21;;;;;;;3.08;88.46;97729.25;1996188;80;23416;-75
2020/12/30 05:19:33;;;;;;;0.20;0.20;;;;;;;3.07;88.53;97733.53;1997397;81;20377;-75
2020/12/30 05:22:34;;;;;;;0.20;0.20;;;;;;;3.07;88.57;97733.53;1999092;81;20444;-75
2020/12/30 05:25:41;;;;;;;0.16;0.16;;;;;;;3.06;88.67;97734.41;1999402;81;20312;-75
2020/12/30 05:28:42;;;;;;;0.46;0.20;;;;;;;3.07;88.67;97743.78;1999473;81;20377;-76
2020/12/30 05:31:50;;;;;;;1.88;0.30;;;;;;;3.07;88.81;97748.94;1998543;78;20331;-75
2020/12/30 05:34:53;;;;;;;1.26;0.20;;;;;;;3.06;88.83;97748.94;1999552;81;20356;-75
2020/12/30 05:37:55;;;;;;;0.84;0.30;;;;;;;3.03;88.95;97750.63;1998126;81;20677;-75
2020/12/30 05:40:57;;;;;;;1.59;0.20;;;;;;;3.01;89.16;97751.47;1998499;81;20332;-75
2020/12/30 05:44:16;;;;;;;1.10;0.24;;;;;;;3.03;89.37;97750.63;1999599;81;20795;-75
2020/12/30 05:47:20;;;;;;;0.20;0.20;;;;;;;3.05;89.43;97758.31;1999245;78;21722;-74
2020/12/30 05:50:24;;;;;;;1.17;0.40;;;;;;;3.09;89.54;97757.47;1999427;81;20202;-75
2020/12/30 05:53:25;;;;;;;0.52;0.30;;;;;;;3.08;89.41;97758.31;1999637;81;21491;-75
2020/12/30 05:56:28;;;;;;;0.59;0.39;;;;;;;3.12;89.55;97767.72;1999445;81;20321;-75
2020/12/30 05:59:30;;;;;;;0.45;0.40;;;;;;;3.12;89.52;97767.72;1999930;81;20352;-75
2020/12/30 06:02:32;;;;;;;1.24;0.51;;;;;;;3.14;89.57;97771.13;1998567;78;22547;-75
2020/12/30 06:05:34;;;;;;;0.66;0.40;;;;;;;3.15;89.66;97767.69;1998397;81;20333;-75
2020/12/30 06:08:37;;;;;;;0.59;0.41;;;;;;;3.13;89.51;97771.13;1998326;81;20350;-75
2020/12/30 06:11:53;;;;;;;0.40;0.30;;;;;;;3.12;89.62;97780.53;1999335;81;20328;-75
2020/12/30 06:14:55;;;;;;;2.00;0.47;;;;;;;3.13;89.54;97778.81;1998624;81;20320;-75
2020/12/30 06:18:01;;;;;;;0.70;0.50;;;;;;;3.06;89.44;97787.38;1997878;78;21809;-75
2020/12/30 06:21:04;;;;;;;2.04;0.40;;;;;;;3.02;89.44;97781.38;1999300;81;20372;-75
2020/12/30 06:24:14;;;;;;;2.08;0.50;;;;;;;3.02;89.56;97791.63;1998653;81;20352;-75
2020/12/30 06:27:19;;;;;;;1.98;0.82;;;;;;;3.03;89.69;97791.63;1999300;81;20340;-75
2020/12/30 06:30:22;;;;;;;1.76;0.70;;;;;;;3.05;89.67;97799.31;1998528;77;23807;-75
2020/12/30 06:33:24;;;;;;;1.56;0.90;;;;;;;3.07;89.62;97805.34;1999754;81;20320;-75
2020/12/30 06:36:25;;;;;;;2.55;0.98;;;;;;;3.10;89.61;97804.47;1998775;81;20362;-75
2020/12/30 06:39:27;;;;;;;2.34;0.71;;;;;;;3.13;89.68;97807.88;2000304;81;20332;-76
2020/12/30 06:42:32;;;;;;;1.30;0.80;;;;;;;3.13;89.60;97807.03;2000975;81;20324;-74
2020/12/30 06:45:43;;;;;;;1.44;0.93;;;;;;;3.10;89.54;97814.72;1999065;78;23536;-74
2020/12/30 06:48:56;;;;;;;1.33;0.68;;;;;;;3.14;89.69;97816.44;2000193;81;20325;-74
2020/12/30 06:52:23;;;;;;;3.80;1.00;;;;;;;3.11;89.56;97819.00;2000721;81;20815;-74
2020/12/30 06:55:43;;;;;;;2.13;0.95;;;;;;;3.13;89.68;97820.69;2001303;81;20450;-74
2020/12/30 06:58:47;;;;;;;2.97;1.20;;;;;;;3.15;89.55;97834.38;2001548;81;20385;-74
2020/12/30 07:01:56;;;;;;;3.95;2.24;;;;;;;3.17;89.50;97835.22;2001804;78;24617;-74
2020/12/30 07:05:01;;;;;;;1.40;0.74;;;;;;;3.16;89.38;97833.53;2000171;81;20328;-74
2020/12/30 07:08:02;;;;;;;0.88;0.60;;;;;;;3.19;89.54;97835.22;2000890;81;21059;-74
2020/12/30 07:11:04;;;;;;;2.26;0.70;;;;;;;3.22;89.22;97846.31;2000335;81;20328;-76
2020/12/30 07:14:14;;;;;;;1.27;0.50;;;;;;;3.16;88.57;97842.91;2000192;81;20734;-76
2020/12/30 07:17:19;;;;;;;2.11;0.60;;;;;;;3.06;88.20;97856.63;1999627;79;25614;-75
2020/12/30 07:20:24;;;;;;;1.50;0.59;;;;;;;3.10;88.53;97863.44;2004384;80;20344;-76
2020/12/30 07:23:27;;;;;;;2.75;0.50;;;;;;;3.15;88.59;97864.28;2000016;81;20354;-76
2020/12/30 07:26:28;;;;;;;2.11;0.64;;;;;;;3.12;88.20;97861.72;2001346;81;21091;-75
2020/12/30 07:29:30;;;;;;;1.19;0.59;;;;;;;3.15;88.23;97877.13;2000528;81;20316;-76
2020/12/30 07:32:32;;;;;;;1.67;0.40;;;;;;;3.17;88.20;97872.84;2002253;77;33530;-74
2020/12/30 07:35:34;;;;;;;0.30;0.30;;;;;;;3.13;87.69;97881.38;2000751;81;20429;-74
2020/12/30 07:38:36;;;;;;;1.24;0.50;;;;;;;3.12;87.78;97883.09;2000596;81;20388;-74
2020/12/30 07:41:43;;;;;;;2.79;0.54;;;;;;;3.14;87.81;97880.53;2001297;81;20384;-75
2020/12/30 07:44:46;;;;;;;0.59;0.45;;;;;;;3.14;87.75;97883.09;2000505;81;20670;-77
2020/12/30 07:47:48;;;;;;;1.31;0.40;;;;;;;3.08;87.47;97885.66;2002231;78;36862;-77
2020/12/30 07:50:50;;;;;;;0.70;0.49;;;;;;;3.04;87.44;97888.22;2000839;81;20358;-77
2020/12/30 07:53:51;;;;;;;1.41;0.47;;;;;;;2.99;87.19;97889.91;2000451;81;20389;-76
2020/12/30 07:57:01;;;;;;;0.50;0.38;;;;;;;2.89;86.94;97895.03;2000995;81;20379;-73
2020/12/30 08:00:03;;;;;;;2.44;0.50;;;;;;;2.79;86.91;97901.00;1999802;81;20373;-73
2020/12/30 08:03:06;;;;;;;2.67;0.40;;;;;;;2.76;87.11;97911.25;2000339;78;30813;-76
2020/12/30 08:06:11;;;;;;;1.25;0.55;;;;;;;2.74;87.22;97916.38;2001092;81;20317;-77
2020/12/30 08:09:14;;;;;;;2.69;0.47;;;;;;;2.79;87.56;97926.63;2003437;80;20391;-77
2020/12/30 08:12:16;;;;;;;2.08;0.51;;;;;;;2.80;87.57;97926.63;2001046;81;20777;-76
2020/12/30 08:15:17;;;;;;;2.17;0.49;;;;;;;2.87;87.82;97935.16;1999305;78;24826;-75
2020/12/30 08:18:19;;;;;;;2.92;0.63;;;;;;;2.92;87.85;97934.34;2000967;81;20782;-75
2020/12/30 08:21:22;;;;;;;2.39;0.70;;;;;;;3.00;87.96;97947.16;2000759;81;20344;-75
2020/12/30 08:24:28;;;;;;;1.35;0.59;;;;;;;3.07;88.02;97948.06;2000043;81;20348;-75
2020/12/30 08:27:30;;;;;;;1.25;0.54;;;;;;;3.12;88.13;97948.91;2002669;81;20299;-83
2020/12/30 08:30:34;;;;;;;1.80;0.60;;;;;;;3.18;88.16;97943.78;2009682;77;27849;-79
2020/12/30 08:33:36;;;;;;;3.59;0.79;;;;;;;3.21;88.14;97954.03;2011390;81;20336;-80
2020/12/30 08:36:42;;;;;;;1.44;0.80;;;;;;;3.22;88.18;97960.88;2013764;81;20320;-81
2020/12/30 08:39:51;;;;;;;1.36;0.76;;;;;;;3.27;88.38;97974.59;2012183;81;20358;-82
2020/12/30 08:43:20;;;;;;;2.78;0.70;;;;;;;3.26;88.16;97976.31;2005442;81;20398;-81
2020/12/30 08:46:26;;;;;;;5.45;2.34;;;;;;;3.33;88.36;97979.72;2003739;78;27234;-80
2020/12/30 08:49:28;;;;;;;1.09;0.70;;;;;;;3.42;88.46;97978.91;2010580;80;20462;-82
2020/12/30 08:52:38;;;;;;;5.53;1.08;;;;;;;3.52;88.50;97984.03;2013889;80;20346;-79
2020/12/30 08:55:40;;;;;;;2.83;1.29;;;;;;;3.68;88.58;97995.16;2011360;80;20347;-83
2020/12/30 08:58:50;;;;;;;2.78;1.01;;;;;;;3.89;88.69;97997.72;2008320;80;21366;-79
2020/12/30 09:01:52;;;;;;;1.60;1.36;;;;;;;4.07;88.21;97993.41;2007127;78;25004;-79
2020/12/30 09:04:54;;;;;;;2.06;0.89;;;;;;;4.16;87.85;98001.13;2009651;80;20343;-80
2020/12/30 09:08:15;;;;;;;3.45;1.09;;;;;;;4.19;87.53;98001.13;2008166;80;20319;-80
2020/12/30 09:11:17;;;;;;;2.26;0.98;;;;;;;4.19;87.33;98006.25;2009551;80;21051;-80
2020/12/30 09:14:21;;;;;;;5.20;1.40;;;;;;;4.21;87.40;98004.53;2007718;80;20357;-79
2020/12/30 09:17:22;;;;;;;4.47;1.26;;;;;;;4.24;87.46;98012.22;2007035;78;20380;-79
2020/12/30 09:20:30;;;;;;;4.14;1.34;;;;;;;4.29;87.36;98007.94;2006002;80;20839;-80
2020/12/30 09:23:32;;;;;;;4.62;1.30;;;;;;;4.31;87.24;98011.38;2005619;80;20840;-80
2020/12/30 09:26:34;;;;;;;3.19;1.41;;;;;;;4.36;87.04;98013.94;2007355;80;20222;-80
2020/12/30 09:29:35;;;;;;;4.79;1.55;;;;;;;4.38;87.00;98015.63;2008049;80;20332;-80
2020/12/30 09:32:38;;;;;;;2.35;1.36;;;;;;;4.41;86.95;98019.91;2005338;78;32811;-80
2020/12/30 09:35:40;;;;;;;3.59;1.77;;;;;;;4.46;87.00;98028.47;2008967;80;20323;-80
2020/12/30 09:38:41;;;;;;;1.66;1.33;;;;;;;4.52;86.96;98031.03;2010403;80;20335;-79
2020/12/30 09:41:43;;;;;;;3.08;1.02;;;;;;;4.60;86.93;98043.84;2013947;80;20354;-80
2020/12/30 09:44:45;;;;;;;1.91;1.05;;;;;;;4.63;86.54;98048.97;2010617;80;20845;-79
2020/12/30 09:47:47;;;;;;;1.36;0.99;;;;;;;4.65;86.29;98047.25;2010626;78;22857;-80
2020/12/30 09:50:51;;;;;;;1.89;0.99;;;;;;;4.66;85.98;98034.41;2007547;80;20355;-79
2020/12/30 09:53:54;;;;;;;3.30;0.95;;;;;;;4.66;85.80;98046.41;2008576;80;20421;-80
2020/12/30 09:56:55;;;;;;;1.45;1.02;;;;;;;4.69;85.93;98054.13;2010953;80;20327;-80
2020/12/30 09:59:57;;;;;;;2.74;0.80;;;;;;;4.72;85.98;98049.81;2008768;80;20339;-81
2020/12/30 10:02:59;;;;;;;5.63;1.23;;;;;;;4.74;85.84;98057.53;2009819;78;26438;-80
2020/12/30 10:06:00;;;;;;;1.73;0.80;;;;;;;4.75;86.00;98062.66;2011380;80;20327;-80
2020/12/30 10:09:02;;;;;;;1.81;0.80;;;;;;;4.82;85.97;98060.94;2006422;80;20365;-79
2020/12/30 10:12:04;;;;;;;3.22;0.74;;;;;;;4.84;85.88;98062.63;2008896;80;20424;-78
2020/12/30 10:15:07;;;;;;;2.67;0.80;;;;;;;4.85;85.84;98064.38;2003565;80;20392;-79
2020/12/30 10:18:09;;;;;;;2.47;1.00;;;;;;;4.85;85.77;98066.94;2003318;78;20337;-78
2020/12/30 10:21:10;;;;;;;2.96;0.94;;;;;;;4.83;85.74;98068.63;2004824;80;20344;-78
2020/12/30 10:24:12;;;;;;;2.96;0.70;;;;;;;4.83;85.48;98072.91;2005699;80;20596;-78
2020/12/30 10:27:15;;;;;;;3.69;0.73;;;;;;;4.81;85.37;98074.66;2006000;80;20360;-79
2020/12/30 10:30:16;;;;;;;2.09;0.98;;;;;;;4.79;85.36;98069.50;2004248;78;22874;-78
2020/12/30 10:33:18;;;;;;;2.58;0.74;;;;;;;4.81;85.58;98083.22;2005746;80;20392;-78
2020/12/30 10:36:22;;;;;;;1.98;0.70;;;;;;;4.80;85.64;98078.06;2005211;80;20365;-78
2020/12/30 10:39:23;;;;;;;2.39;0.61;;;;;;;4.80;85.69;98081.50;2005659;80;20383;-79
2020/12/30 10:42:25;;;;;;;1.69;0.63;;;;;;;4.83;85.66;98085.78;2005520;80;20342;-78
2020/12/30 10:45:26;;;;;;;1.79;0.65;;;;;;;4.83;85.68;98086.63;2003642;78;25821;-79
2020/12/30 10:48:28;;;;;;;3.03;0.60;;;;;;;4.84;85.90;98084.91;2009031;80;20338;-78
2020/12/30 10:51:31;;;;;;;1.42;0.86;;;;;;;4.85;86.01;98089.22;2005954;80;20346;-79
2020/12/30 10:54:33;;;;;;;1.56;0.70;;;;;;;4.87;86.03;98092.66;2005228;80;20383;-79
2020/12/30 10:57:35;;;;;;;2.11;0.70;;;;;;;4.84;85.92;98098.63;2007016;80;20475;-80
2020/12/30 11:00:36;;;;;;;1.65;0.85;;;;;;;4.86;86.12;98096.09;2005897;79;22355;-74
2020/12/30 11:03:44;;;;;;;4.22;0.90;;;;;;;4.90;86.08;98096.94;2008540;80;20983;-79
2020/12/30 11:06:46;;;;;;;2.40;0.60;;;;;;;4.93;85.59;98094.34;2010053;80;20436;-80
2020/12/30 11:09:49;;;;;;;1.13;0.68;;;;;;;5.04;85.66;98098.59;2012654;80;20359;-80
2020/12/30 11:12:58;;;;;;;2.16;0.79;;;;;;;5.14;85.55;98096.84;2012149;80;20792;-80
2020/12/30 11:15:59;;;;;;;2.46;0.70;;;;;;;5.24;85.44;98101.09;2011387;78;23537;-81
2020/12/30 11:19:01;;;;;;;1.13;0.81;;;;;;;5.31;85.23;98095.06;2013120;80;20336;-80
2020/12/30 11:22:03;;;;;;;0.91;0.60;;;;;;;5.36;84.73;98084.72;2014475;80;20346;-81
2020/12/30 11:25:05;;;;;;;1.36;0.70;;;;;;;5.40;84.48;98087.31;2016767;80;20397;-81
2020/12/30 11:28:06;;;;;;;1.49;0.59;;;;;;;5.43;84.02;98084.72;2016239;80;20347;-81
2020/12/30 11:31:09;;;;;;;2.47;0.68;;;;;;;5.49;83.52;98082.97;2018192;78;24212;-81
2020/12/30 11:34:11;;;;;;;0.52;0.50;;;;;;;5.51;83.30;98087.22;2017590;80;20319;-82
2020/12/30 11:37:13;;;;;;;1.11;0.61;;;;;;;5.54;83.40;98087.22;2017179;80;20351;-82
2020/12/30 11:40:14;;;;;;;0.63;0.55;;;;;;;5.59;82.89;98090.63;2018321;80;20388;-81
2020/12/30 11:43:16;;;;;;;1.19;0.63;;;;;;;5.65;82.84;98089.72;2016263;80;20303;-83
2020/12/30 11:46:19;;;;;;;2.04;0.95;;;;;;;5.69;82.81;98092.28;2017535;79;22202;-81
2020/12/30 11:49:21;;;;;;;0.68;0.50;;;;;;;5.75;82.26;98089.69;2017039;80;20338;-81
2020/12/30 11:52:23;;;;;;;1.54;0.61;;;;;;;5.77;81.34;98092.25;2016045;80;20361;-81
2020/12/30 11:55:26;;;;;;;0.77;0.50;;;;;;;5.81;81.36;98087.94;2015211;80;20304;-80
2020/12/30 11:58:27;;;;;;;2.39;0.68;;;;;;;5.82;81.37;98085.34;2010159;80;20323;-81
2020/12/30 12:01:34;;;;;;;0.88;0.60;;;;;;;5.86;80.99;98078.44;2014262;78;23920;-81
2020/12/30 12:04:37;;;;;;;0.93;0.70;;;;;;;5.95;80.97;98079.28;2012986;80;20349;-81
2020/12/30 12:07:39;;;;;;;1.06;0.50;;;;;;;6.06;80.76;98074.88;2018363;80;20321;-81
2020/12/30 12:10:41;;;;;;;1.38;0.82;;;;;;;6.15;80.65;98073.13;2016530;80;20411;-81
2020/12/30 12:13:43;;;;;;;1.27;0.70;;;;;;;6.18;80.53;98067.94;2015620;80;20372;-81
2020/12/30 12:16:56;;;;;;;0.89;0.55;;;;;;;6.28;80.25;98074.69;2013329;78;21306;-79
2020/12/30 12:19:58;;;;;;;1.42;0.49;;;;;;;6.41;79.85;98071.16;2014028;80;20307;-81
2020/12/30 12:23:02;;;;;;;0.91;0.60;;;;;;;6.47;79.22;98070.25;2014433;80;20342;-82
2020/12/30 12:26:05;;;;;;;0.70;0.70;;;;;;;6.43;78.78;98069.41;2013898;80;20341;-81
2020/12/30 12:29:18;;;;;;;1.17;0.60;;;;;;;6.36;77.81;98072.94;2016535;80;20323;-81
2020/12/30 12:32:22;;;;;;;0.74;0.51;;;;;;;6.15;76.89;98075.69;2010355;79;20349;-79
2020/12/30 12:35:24;;;;;;;1.61;0.57;;;;;;;6.04;77.56;98080.91;2011528;80;20359;-80
2020/12/30 12:38:26;;;;;;;1.17;0.41;;;;;;;5.98;77.46;98083.53;2013074;80;20457;-81
2020/12/30 12:41:27;;;;;;;1.36;0.80;;;;;;;5.93;78.60;98087.88;2016157;80;20326;-80
2020/12/30 12:44:30;;;;;;;1.39;0.55;;;;;;;5.85;79.05;98089.59;2014804;80;20353;-81
2020/12/30 12:47:32;;;;;;;0.60;0.60;;;;;;;5.88;80.24;98095.59;2016759;80;21598;-81
2020/12/30 12:50:34;;;;;;;2.16;0.70;;;;;;;5.83;80.12;98093.91;2017381;80;20343;-80
2020/12/30 12:53:35;;;;;;;1.77;0.60;;;;;;;5.79;80.02;98103.38;2017163;80;20331;-80
2020/12/30 12:56:37;;;;;;;0.60;0.60;;;;;;;5.78;80.47;98104.25;2017216;80;20675;-81
2020/12/30 12:59:38;;;;;;;1.36;0.70;;;;;;;5.73;80.85;98109.41;2018871;80;20327;-81
2020/12/30 13:02:40;;;;;;;0.89;0.79;;;;;;;5.67;81.12;98106.03;2017366;78;23869;-82
2020/12/30 13:05:44;;;;;;;2.55;0.69;;;;;;;5.62;81.37;98118.94;2015651;80;20311;-80
2020/12/30 13:08:46;;;;;;;1.00;0.80;;;;;;;5.56;81.64;98112.94;2017215;80;20315;-81
2020/12/30 13:11:50;;;;;;;0.82;0.60;;;;;;;5.54;81.81;98115.53;2015620;80;20444;-82
2020/12/30 13:14:51;;;;;;;0.68;0.60;;;;;;;5.52;81.83;98118.97;2018300;80;20340;-80
2020/12/30 13:17:53;;;;;;;1.55;0.70;;;;;;;5.46;82.10;98123.28;2021798;78;23989;-81
2020/12/30 13:20:57;;;;;;;1.17;0.56;;;;;;;5.34;81.83;98120.75;2020553;80;20315;-82
2020/12/30 13:23:58;;;;;;;0.56;0.56;;;;;;;5.34;82.23;98122.50;2017736;80;20359;-81
2020/12/30 13:27:00;;;;;;;1.33;0.56;;;;;;;5.25;81.78;98125.13;2016973;80;20342;-82
2020/12/30 13:30:05;;;;;;;2.01;0.70;;;;;;;5.10;81.63;98126.88;2018010;80;20311;-82
2020/12/30 13:33:06;;;;;;;0.80;0.70;;;;;;;5.02;82.02;98143.16;2017193;78;20646;-82
2020/12/30 13:36:22;;;;;;;0.70;0.50;;;;;;;4.94;82.26;98143.19;2017392;80;20311;-81
2020/12/30 13:39:23;;;;;;;0.57;0.41;;;;;;;4.84;82.83;98144.06;2013006;80;20369;-80
2020/12/30 13:42:25;;;;;;;0.49;0.30;;;;;;;4.73;82.55;98149.25;2019342;80;20341;-83
2020/12/30 13:45:27;;;;;;;0.77;0.40;;;;;;;4.62;82.31;98145.81;2025669;78;49597;-83
2020/12/30 13:48:28;;;;;;;0.52;0.50;;;;;;;4.52;82.28;98156.97;2020444;80;20357;-83
2020/12/30 13:51:31;;;;;;;1.41;0.43;;;;;;;4.42;82.41;98161.25;2019768;80;20325;-82
2020/12/30 13:54:32;;;;;;;1.35;1.09;;;;;;;4.29;82.51;98169.78;2019652;80;20339;-81
2020/12/30 13:57:37;;;;;;;0.88;0.39;;;;;;;4.21;83.11;98176.66;2017305;80;20361;-81
2020/12/30 14:00:38;;;;;;;0.41;0.40;;;;;;;4.16;83.69;98179.22;2018408;79;25003;-81
2020/12/30 14:03:40;;;;;;;0.85;0.40;;;;;;;4.13;83.99;98181.78;2020903;80;20360;-82
2020/12/30 14:06:42;;;;;;;0.40;0.40;;;;;;;4.09;84.11;98187.75;2019862;80;20324;-82
2020/12/30 14:09:43;;;;;;;0.40;0.40;;;;;;;4.00;84.27;98177.47;2020325;80;20394;-75
2020/12/30 14:12:45;;;;;;;0.40;0.40;;;;;;;3.94;84.73;98185.16;2005930;80;20351;-74
2020/12/30 14:15:46;;;;;;;0.40;0.40;;;;;;;3.88;85.09;98187.72;2004212;78;24457;-75
2020/12/30 14:18:48;;;;;;;0.61;0.30;;;;;;;3.87;85.55;98194.56;2006172;80;20335;-73
2020/12/30 14:21:53;;;;;;;0.81;0.40;;;;;;;3.89;85.74;98192.84;2005707;80;20311;-73
2020/12/30 14:24:54;;;;;;;0.82;0.70;;;;;;;3.89;86.01;98197.97;2004994;80;20370;-73
2020/12/30 14:27:56;;;;;;;3.53;3.22;;;;;;;3.88;86.20;98209.09;2005388;80;20353;-73
2020/12/30 14:30:58;;;;;;;3.46;2.94;;;;;;;3.92;86.55;98215.97;2004828;78;23257;-73